APL Illinois — 9HA2040 — position and weather

sailwx.info

Track history (hours):
 
Tides and Currents Weather Stations Pressure Air Temp Water Temp Dewpoint Dewpoint Depression Visibility Wind Speed Wind Dir Waves Ship Positions

APL Illinois

Last reported at 2018-Jun-18 18:56 UTC. Time now 2018-Jun-19 04:30 UTC.
Position N 37°10' E 003°52'.

Length 304 m; draft 14.2 m.

Type: Ship (hazmat cat A). MMSI: 249851000.

Date/timePositionNaut miles runAvg speedWind from/ knotsBaromVisibWave heightAir tempDewpointWater temp
2018-Jun-18 18:56N 37°10' E 003°52'5019.9
2018-Jun-18 16:24N 37°02' E 002°50'820.3
2018-Jun-18 16:00N 37°00' E 002°40'1020.4
2018-Jun-18 15:31N 36°59' E 002°28'1020.7
2018-Jun-18 15:00N 36°57' E 002°15'1121.3
2018-Jun-18 14:31N 36°55' E 002°02'1121.1
2018-Jun-18 14:01N 36°53' E 001°49'2821.2
2018-Jun-18 12:43N 36°49' E 001°15'421.0
2018-Jun-18 12:30N 36°48' E 001°09'1020.9
2018-Jun-18 12:01N 36°47' E 000°57'1420.6
2018-Jun-18 11:21N 36°45' E 000°40'720.5
2018-Jun-18 11:01N 36°44' E 000°31'1020.4
2018-Jun-18 10:30N 36°42' E 000°19'1020.3
2018-Jun-18 10:00N 36°40' E 000°06'1020.5
2018-Jun-18 09:30N 36°38' W 000°06'1120.7
2018-Jun-18 08:59N 36°37' W 000°19'1120.7
2018-Jun-18 08:29N 36°35' W 000°32'1020.4
2018-Jun-18 08:01N 36°34' W 000°44'1020.8
2018-Jun-18 07:31N 36°32' W 000°57'1221.0
2018-Jun-18 06:56N 36°30' W 001°12'920.8
2018-Jun-18 06:29N 36°28' W 001°23'1021.0
2018-Jun-18 06:00N 36°26' W 001°36'1121.6
2018-Jun-18 05:29N 36°24' W 001°49'3022.0
2018-Jun-18 04:08N 36°20' W 002°26'13421.8
2018-Jun-17 22:00N 36°00' W 005°10'1122.7
2018-Jun-17 21:31N 35°58' W 005°23'1223.6
2018-Jun-17 21:00N 35°55' W 005°37'1122.5
2018-Jun-17 20:30N 35°53' W 005°51'1121.3
2018-Jun-17 20:00N 35°53' W 006°04'10321.0
2018-Jun-17 15:06N 36°18' W 008°09'220.7
2018-Jun-17 14:59N 36°18' W 008°11'1020.6
2018-Jun-17 14:29N 36°21' W 008°24'1220.8
2018-Jun-17 13:54N 36°24' W 008°38'921.1
2018-Jun-17 13:28N 36°27' W 008°49'1020.8
2018-Jun-17 13:00N 36°30' W 009°01'1020.7
2018-Jun-17 12:30N 36°32' W 009°13'1120.4
2018-Jun-17 11:59N 36°38' W 009°24'1021.2
2018-Jun-17 11:30N 36°46' W 009°33'2921.1
2018-Jun-17 10:09N 37°13' W 009°42'321.1
2018-Jun-17 10:00N 37°16' W 009°43'1121.2
2018-Jun-17 09:30N 37°27' W 009°46'1121.2
2018-Jun-17 09:00N 37°37' W 009°49'1021.0
2018-Jun-17 08:30N 37°47' W 009°52'1121.2
2018-Jun-17 08:00N 37°58' W 009°55'1021.1
2018-Jun-17 07:30N 38°08' W 009°57'1121.0
2018-Jun-17 07:00N 38°18' W 009°60'1021.0
2018-Jun-17 06:30N 38°29' W 010°02'1121.0
2018-Jun-17 06:00N 38°39' W 010°05'1020.9
2018-Jun-17 05:30N 38°49' W 010°07'1120.8
2018-Jun-17 05:00N 38°60' W 010°08'1020.7
2018-Jun-17 04:30N 39°10' W 010°08'1121.3
2018-Jun-17 03:58N 39°21' W 010°08'1221.1
2018-Jun-17 03:25N 39°33' W 010°08'3221.3
2018-Jun-17 01:55N 40°05' W 010°09'5821.3
2018-Jun-16 23:12N 41°03' W 010°09'421.5
2018-Jun-16 23:00N 41°07' W 010°09'52320.2
2018-Jun-15 21:10N 49°06' W 005°12'919.4
2018-Jun-15 20:43N 49°10' W 005°01'918.8
2018-Jun-15 20:13N 49°15' W 004°49'4518.8
2018-Jun-15 17:49N 49°39' W 003°50'1619.2
2018-Jun-15 16:59N 49°46' W 003°28'1020.5
2018-Jun-15 16:31N 49°51' W 003°14'1121.3
2018-Jun-15 16:00N 49°57' W 003°00'1122.5
2018-Jun-15 15:31N 50°01' W 002°44'1223.5
2018-Jun-15 15:01N 50°05' W 002°26'1224.2
2018-Jun-15 14:30N 50°08' W 002°09'1324.3
2018-Jun-15 13:58N 50°12' W 001°49'1123.6
2018-Jun-15 13:29N 50°14' W 001°31'1122.8
2018-Jun-15 13:00N 50°17' W 001°15'1121.8
2018-Jun-15 12:30N 50°19' W 000°58'1020.3
2018-Jun-15 12:00N 50°21' W 000°42'1019.7
2018-Jun-15 11:30N 50°23' W 000°28'1019.3
2018-Jun-15 11:00N 50°26' W 000°13'1018.9
2018-Jun-15 10:30N 50°29' E 000°01'918.4
2018-Jun-15 10:00N 50°31' E 000°15'918.4
2018-Jun-15 09:30N 50°35' E 000°28'919.0
2018-Jun-15 09:00N 50°40' E 000°41'1020.3
2018-Jun-15 08:30N 50°46' E 000°54'1121.7
2018-Jun-15 08:01N 50°52' E 001°09'1122.8
2018-Jun-15 07:31N 50°59' E 001°23'1224.1
2018-Jun-15 07:01N 51°08' E 001°35'1122.6
2018-Jun-15 06:30N 51°16' E 001°48'1121.3
2018-Jun-15 06:01N 51°25' E 001°58'918.0
2018-Jun-15 05:31N 51°21' E 002°12'918.5
2018-Jun-15 05:00N 51°22' E 002°26'918.2
2018-Jun-15 04:31N 51°23' E 002°41'713.6
2018-Jun-15 04:00N 51°25' E 002°51'917.9
2018-Jun-15 03:30N 51°24' E 003°05'917.2
2018-Jun-15 03:00N 51°24' E 003°19'816.9
2018-Jun-15 02:30N 51°25' E 003°32'510.5
2018-Jun-15 02:00N 51°26' E 003°41'714.1
2018-Jun-15 01:31N 51°21' E 003°48'612.8
2018-Jun-15 01:00N 51°24' E 003°57'3 6.9
2018-Jun-15 00:30N 51°23' E 004°03'612.1
2018-Jun-15 00:00N 51°24' E 004°12'4 7.8
2018-Jun-14 23:31N 51°21' E 004°16'0 0.4
2018-Jun-14 23:01N 51°21' E 004°16'0 0.0
2018-Jun-14 22:30N 51°21' E 004°16'0 0.0
2018-Jun-14 22:01N 51°21' E 004°16'0 0.0
2018-Jun-14 21:30N 51°21' E 004°16'0 0.0
2018-Jun-14 21:01N 51°21' E 004°16'0 0.0
2018-Jun-14 20:31N 51°21' E 004°16'0 0.0
2018-Jun-14 20:01N 51°21' E 004°16'0 0.0
2018-Jun-14 19:30N 51°21' E 004°16'0 0.0
2018-Jun-14 18:59N 51°21' E 004°16'0 0.0
2018-Jun-14 18:30N 51°21' E 004°16'0 0.0
2018-Jun-14 18:01N 51°21' E 004°16'0 0.0
2018-Jun-14 17:30N 51°21' E 004°16'0 0.0
2018-Jun-14 17:00N 51°21' E 004°16'0 0.0
2018-Jun-14 16:30N 51°21' E 004°16'0 0.0
2018-Jun-14 16:00N 51°21' E 004°16'0 0.0
2018-Jun-14 15:31N 51°21' E 004°16'0 0.0
2018-Jun-14 15:00N 51°21' E 004°16'0 0.0
2018-Jun-14 14:30N 51°21' E 004°16'0 0.0
2018-Jun-14 14:00N 51°21' E 004°16'0 0.0
2018-Jun-14 13:31N 51°21' E 004°16'0 0.1
2018-Jun-14 12:59N 51°21' E 004°16'0 0.1
2018-Jun-14 12:30N 51°21' E 004°16'0 0.0
2018-Jun-14 11:57N 51°21' E 004°16'0 0.0
2018-Jun-14 11:31N 51°21' E 004°16'0 0.0
2018-Jun-14 11:01N 51°21' E 004°16'0 0.0
2018-Jun-14 10:29N 51°21' E 004°16'0 0.0
2018-Jun-14 10:00N 51°21' E 004°16'0 0.0
2018-Jun-14 09:30N 51°21' E 004°16'0 0.0
2018-Jun-14 09:00N 51°21' E 004°16'0 0.0
2018-Jun-14 08:30N 51°21' E 004°16'0 0.0
2018-Jun-14 07:59N 51°21' E 004°16'0 0.0
2018-Jun-14 07:30N 51°21' E 004°16'0 0.0
2018-Jun-14 07:01N 51°21' E 004°16'0 0.0
2018-Jun-14 06:31N 51°21' E 004°16'0 0.0
2018-Jun-14 06:00N 51°21' E 004°16'0 0.0
2018-Jun-14 05:30N 51°21' E 004°16'0 0.0
2018-Jun-14 05:00N 51°21' E 004°16'0 0.0
2018-Jun-14 04:30N 51°21' E 004°16'0 0.0
2018-Jun-14 04:01N 51°21' E 004°16'0 0.0
2018-Jun-14 03:31N 51°21' E 004°16'0 0.0
2018-Jun-14 02:59N 51°21' E 004°16'0 0.0
2018-Jun-14 02:30N 51°21' E 004°16'0 0.0
2018-Jun-14 02:00N 51°21' E 004°16'0 0.0
2018-Jun-14 01:30N 51°21' E 004°16'0 0.0
2018-Jun-14 01:01N 51°21' E 004°16'0 0.0
2018-Jun-14 00:30N 51°21' E 004°16'0 0.0
2018-Jun-14 00:00N 51°21' E 004°16'0 0.0
2018-Jun-13 23:30N 51°21' E 004°16'0 0.1
2018-Jun-13 23:00N 51°21' E 004°16'0 0.0
2018-Jun-13 22:29N 51°21' E 004°16'0 0.0
2018-Jun-13 22:00N 51°21' E 004°16'0 0.0
2018-Jun-13 21:29N 51°21' E 004°16'0 0.0
2018-Jun-13 21:01N 51°21' E 004°16'0 0.0
2018-Jun-13 20:31N 51°21' E 004°16'0 0.0
2018-Jun-13 19:59N 51°21' E 004°16'0 0.0
2018-Jun-13 19:31N 51°21' E 004°16'0 0.0
2018-Jun-13 19:00N 51°21' E 004°16'0 0.0
2018-Jun-13 18:31N 51°21' E 004°16'0 0.0
2018-Jun-13 18:01N 51°21' E 004°16'1 2.1
2018-Jun-13 17:31N 51°21' E 004°14'4 8.7
2018-Jun-13 17:00N 51°22' E 004°07'510.5
2018-Jun-13 16:30N 51°26' E 004°01'611.6
2018-Jun-13 16:00N 51°22' E 003°54'612.5
2018-Jun-13 15:30N 51°22' E 003°44'612.1
2018-Jun-13 15:00N 51°26' E 003°37'611.3
2018-Jun-13 14:31N 51°25' E 003°28'918.7
2018-Jun-13 14:01N 51°24' E 003°13'816.2
2018-Jun-13 13:30N 51°26' E 003°00'816.4
2018-Jun-13 13:00N 51°33' E 003°07'816.7
2018-Jun-13 12:31N 51°41' E 003°12'713.4
2018-Jun-13 12:00N 51°47' E 003°18'3 5.3
2018-Jun-13 11:28N 51°48' E 003°22'0 0.2
2018-Jun-13 10:55N 51°48' E 003°22'0 0.3
2018-Jun-13 10:25N 51°47' E 003°22'0 0.0
2018-Jun-13 09:55N 51°47' E 003°22'0 0.0
2018-Jun-13 09:25N 51°47' E 003°22'0 0.0
2018-Jun-13 08:55N 51°47' E 003°22'0 0.0
2018-Jun-13 08:25N 51°47' E 003°22'0 0.0
2018-Jun-13 07:52N 51°47' E 003°22'0 0.0
2018-Jun-13 07:16N 51°47' E 003°22'0 0.0
2018-Jun-13 06:58N 51°47' E 003°22'0 0.1
2018-Jun-13 06:10N 51°47' E 003°22'0 0.0
2018-Jun-13 05:55N 51°47' E 003°22'0 0.0
2018-Jun-13 05:25N 51°47' E 003°22'0 0.1
2018-Jun-13 03:31N 51°48' E 003°22'0 0.4
2018-Jun-13 03:28N 51°48' E 003°22'0 0.1
2018-Jun-13 02:58N 51°48' E 003°22'0 0.1
2018-Jun-13 02:25N 51°48' E 003°22'0 0.0
2018-Jun-13 01:58N 51°48' E 003°22'0 0.0
2018-Jun-13 01:22N 51°48' E 003°22'0 0.0
2018-Jun-13 00:13N 51°48' E 003°22'0 0.2
2018-Jun-12 23:49N 51°48' E 003°22'0 0.3
2018-Jun-12 23:28N 51°48' E 003°22'0 0.2
2018-Jun-12 22:58N 51°47' E 003°22'0 0.1
2018-Jun-12 22:19N 51°47' E 003°22'1 2.1
2018-Jun-12 22:00N 51°47' E 003°22'713.3
2018-Jun-12 21:28N 51°45' E 003°11'715.0
2018-Jun-12 20:59N 51°48' E 002°60'1116.6
2018-Jun-12 20:20N 51°45' E 002°43'413.1
2018-Jun-12 20:00N 51°41' E 002°42'714.6
2018-Jun-12 19:30N 51°33' E 002°41'714.1
2018-Jun-12 19:00N 51°27' E 002°35'510.1
2018-Jun-12 18:30N 51°33' E 002°36'815.7
2018-Jun-12 17:58N 51°41' E 002°38'918.1
2018-Jun-12 17:28N 51°50' E 002°36'714.4
2018-Jun-12 17:01N 51°56' E 002°39'714.1
2018-Jun-12 16:30N 52°01' E 002°47'713.0
2018-Jun-12 15:58N 52°07' E 002°54'1112.4
2018-Jun-12 15:04N 52°15' E 003°05'112.3
2018-Jun-12 14:57N 52°17' E 003°07'511.9
2018-Jun-12 14:30N 52°21' E 003°12'611.8
2018-Jun-12 13:58N 52°25' E 003°19'711.6
2018-Jun-12 13:25N 52°31' E 003°23'1111.6
2018-Jun-12 12:27N 52°41' E 003°33'1212.7
2018-Jun-12 11:31N 52°50' E 003°46'2513.8
2018-Jun-12 09:44N 53°06' E 004°17'314.1
2018-Jun-12 09:30N 53°08' E 004°21'714.1
2018-Jun-12 09:00N 53°14' E 004°27'814.6
2018-Jun-12 08:27N 53°21' E 004°32'714.3
2018-Jun-12 07:58N 53°28' E 004°37'713.2
2018-Jun-12 07:27N 53°31' E 004°47'613.1
2018-Jun-12 07:00N 53°33' E 004°56'612.7
2018-Jun-12 06:30N 53°35' E 005°06'612.1
2018-Jun-12 06:00N 53°37' E 005°16'611.7
2018-Jun-12 05:29N 53°39' E 005°26'611.8
2018-Jun-12 05:00N 53°41' E 005°34'1612.2
2018-Jun-12 03:39N 53°46' E 006°01'212.6
2018-Jun-12 03:28N 53°47' E 006°05'713.0
2018-Jun-12 02:56N 53°49' E 006°16'613.5
2018-Jun-12 02:28N 53°51' E 006°26'613.7
2018-Jun-12 02:00N 53°53' E 006°36'813.8
2018-Jun-12 01:27N 53°54' E 006°49'3112.6
2018-Jun-11 23:01N 53°58' E 007°41'012.5
2018-Jun-11 23:00N 53°58' E 007°41'611.9
2018-Jun-11 22:27N 53°53' E 007°48'612.4
2018-Jun-11 21:56N 53°51' E 007°59'817.3
2018-Jun-11 21:30N 53°47' E 008°09'816.7
2018-Jun-11 21:00N 53°42' E 008°20'714.8
2018-Jun-11 20:30N 53°37' E 008°30'1 1.9
2018-Jun-11 19:59N 53°36' E 008°31'0 0.0
2018-Jun-11 19:29N 53°36' E 008°31'0 0.0
2018-Jun-11 18:59N 53°36' E 008°31'0 0.0
2018-Jun-11 18:29N 53°36' E 008°31'0 0.0
2018-Jun-11 17:59N 53°36' E 008°31'0 0.0
2018-Jun-11 17:29N 53°36' E 008°31'0 0.0
2018-Jun-11 16:59N 53°36' E 008°31'0 0.0
2018-Jun-11 16:29N 53°36' E 008°31'0 0.0
2018-Jun-11 15:59N 53°36' E 008°31'0 0.0
2018-Jun-11 15:29N 53°36' E 008°31'0 0.0
2018-Jun-11 14:59N 53°36' E 008°31'0 0.0
2018-Jun-11 14:29N 53°36' E 008°31'0 0.0
2018-Jun-11 13:59N 53°36' E 008°31'0 0.0
2018-Jun-11 13:29N 53°36' E 008°31'0 0.0
2018-Jun-11 12:59N 53°36' E 008°31'0 0.0
2018-Jun-11 12:29N 53°36' E 008°31'0 0.0
2018-Jun-11 11:59N 53°36' E 008°31'0 0.0
2018-Jun-11 11:29N 53°36' E 008°31'0 0.0
2018-Jun-11 10:59N 53°36' E 008°31'0 0.0
2018-Jun-11 10:29N 53°36' E 008°31'0 0.0
2018-Jun-11 09:59N 53°36' E 008°31'0 0.0
2018-Jun-11 09:29N 53°36' E 008°31'0 0.0
2018-Jun-11 08:59N 53°36' E 008°31'0 0.0
2018-Jun-11 08:29N 53°36' E 008°31'0 0.0
2018-Jun-11 07:59N 53°36' E 008°31'0 0.0
2018-Jun-11 07:29N 53°36' E 008°31'0 0.0
2018-Jun-11 06:59N 53°36' E 008°31'0 0.0
2018-Jun-11 06:29N 53°36' E 008°31'0 0.0
2018-Jun-11 05:59N 53°36' E 008°31'0 0.0
2018-Jun-11 05:29N 53°36' E 008°31'0 0.0
2018-Jun-11 04:59N 53°36' E 008°31'0 0.0
2018-Jun-11 04:29N 53°36' E 008°31'0 0.0
2018-Jun-11 03:59N 53°36' E 008°31'0 0.0
2018-Jun-11 03:29N 53°36' E 008°31'0 0.0
2018-Jun-11 02:59N 53°36' E 008°31'0 0.1
2018-Jun-11 02:29N 53°36' E 008°31'0 0.0
2018-Jun-11 01:59N 53°36' E 008°31'0 0.0
2018-Jun-11 01:29N 53°36' E 008°31'0 0.0
2018-Jun-11 00:59N 53°36' E 008°31'0 0.0
2018-Jun-11 00:29N 53°36' E 008°31'0 0.0
2018-Jun-10 23:59N 53°36' E 008°31'0 0.0
2018-Jun-10 23:29N 53°36' E 008°31'0 0.0
2018-Jun-10 22:59N 53°36' E 008°31'0 0.0
2018-Jun-10 22:26N 53°36' E 008°31'0 0.0
2018-Jun-10 21:59N 53°36' E 008°31'0 0.0
2018-Jun-10 21:29N 53°36' E 008°31'0 0.0
2018-Jun-10 20:59N 53°36' E 008°31'0 0.0
2018-Jun-10 20:29N 53°36' E 008°31'0 0.0
2018-Jun-10 19:59N 53°36' E 008°31'0 0.0
2018-Jun-10 19:29N 53°36' E 008°31'0 0.0
2018-Jun-10 18:59N 53°36' E 008°31'0 0.0
2018-Jun-10 18:29N 53°36' E 008°31'0 0.0
2018-Jun-10 17:59N 53°36' E 008°31'0 0.0
2018-Jun-10 17:29N 53°36' E 008°31'0 0.0
2018-Jun-10 16:59N 53°36' E 008°31'0 0.0
2018-Jun-10 16:29N 53°36' E 008°31'0 0.0
2018-Jun-10 15:59N 53°36' E 008°31'0 0.0
2018-Jun-10 15:29N 53°36' E 008°31'0 0.0
2018-Jun-10 14:59N 53°36' E 008°31'0 0.0
2018-Jun-10 13:59N 53°36' E 008°31'0 0.0
2018-Jun-10 13:29N 53°36' E 008°31'0 0.0
2018-Jun-10 12:59N 53°36' E 008°31'0 0.0
2018-Jun-10 12:29N 53°36' E 008°31'0 0.0
2018-Jun-10 11:59N 53°36' E 008°31'0 0.0
2018-Jun-10 11:29N 53°36' E 008°31'0 0.0
2018-Jun-10 10:59N 53°36' E 008°31'0 0.0
2018-Jun-10 10:30N 53°36' E 008°31'3 5.0
2018-Jun-10 10:00N 53°38' E 008°27'714.9
2018-Jun-10 09:30N 53°43' E 008°18'714.0
2018-Jun-10 09:00N 53°47' E 008°09'816.9
2018-Jun-10 08:30N 53°51' E 007°57'713.8
2018-Jun-10 08:00N 53°53' E 007°45'1 2.7
2018-Jun-10 07:30N 53°54' E 007°47'0 0.1
2018-Jun-10 06:53N 53°54' E 007°47'0 0.0
2018-Jun-10 06:08N 53°54' E 007°47'0 0.0
2018-Jun-10 05:59N 53°54' E 007°47'0 0.0
2018-Jun-10 04:56N 53°54' E 007°47'0 0.0
2018-Jun-10 04:11N 53°54' E 007°47'0 0.0
2018-Jun-10 03:47N 53°54' E 007°47'0 0.0
2018-Jun-10 03:29N 53°54' E 007°47'0 0.0
2018-Jun-10 02:59N 53°54' E 007°47'0 0.1
2018-Jun-10 02:29N 53°54' E 007°47'0 0.1
2018-Jun-10 01:59N 53°54' E 007°47'0 0.0
2018-Jun-10 01:29N 53°54' E 007°47'0 0.1
2018-Jun-10 00:59N 53°54' E 007°47'0 0.1
2018-Jun-10 00:29N 53°54' E 007°46'0 0.1
2018-Jun-09 23:59N 53°54' E 007°46'0 0.0
2018-Jun-09 23:29N 53°54' E 007°46'0 0.0
2018-Jun-09 22:59N 53°54' E 007°46'0 0.0
2018-Jun-09 22:29N 53°54' E 007°46'0 0.0
2018-Jun-09 21:59N 53°54' E 007°46'0 0.1
2018-Jun-09 21:29N 53°54' E 007°46'0 0.1
2018-Jun-09 20:59N 53°54' E 007°46'0 0.1
2018-Jun-09 20:26N 53°54' E 007°47'0 0.1
2018-Jun-09 19:56N 53°54' E 007°47'0 0.0
2018-Jun-09 19:29N 53°54' E 007°47'0 0.1
2018-Jun-09 18:59N 53°54' E 007°47'0 0.1
2018-Jun-09 18:29N 53°54' E 007°47'0 0.0
2018-Jun-09 17:59N 53°54' E 007°47'0 0.0
2018-Jun-09 17:29N 53°54' E 007°47'0 0.0
2018-Jun-09 16:59N 53°54' E 007°47'0 0.0
2018-Jun-09 16:26N 53°54' E 007°47'0 0.0
2018-Jun-09 15:59N 53°54' E 007°47'0 0.0
2018-Jun-09 15:29N 53°54' E 007°47'0 0.1
2018-Jun-09 14:29N 53°54' E 007°47'0 0.1
2018-Jun-09 13:59N 53°54' E 007°47'0 0.0
2018-Jun-09 13:29N 53°54' E 007°47'0 0.1
2018-Jun-09 12:59N 53°54' E 007°47'0 0.1
2018-Jun-09 12:29N 53°54' E 007°46'0 0.1
2018-Jun-09 11:59N 53°54' E 007°46'0 0.1
2018-Jun-09 11:29N 53°54' E 007°46'0 0.0
2018-Jun-09 10:59N 53°54' E 007°46'0 0.1
2018-Jun-09 10:26N 53°54' E 007°46'0 0.4
2018-Jun-09 10:00N 53°54' E 007°46'4 7.9
2018-Jun-09 09:30N 53°54' E 007°40'816.9
2018-Jun-09 09:00N 53°53' E 007°25'813.4
2018-Jun-09 08:24N 53°52' E 007°12'512.3
2018-Jun-09 07:59N 53°51' E 007°03'612.6
2018-Jun-09 07:31N 53°49' E 006°54'612.9
2018-Jun-09 07:01N 53°48' E 006°43'713.0
2018-Jun-09 06:30N 53°47' E 006°32'713.0
2018-Jun-09 06:00N 53°45' E 006°21'613.1
2018-Jun-09 05:30N 53°43' E 006°11'713.3
2018-Jun-09 05:01N 53°41' E 005°60'713.3
2018-Jun-09 04:30N 53°39' E 005°49'713.4
2018-Jun-09 04:00N 53°37' E 005°39'713.6
2018-Jun-09 03:30N 53°35' E 005°28'713.6
2018-Jun-09 03:00N 53°33' E 005°17'713.5
2018-Jun-09 02:30N 53°31' E 005°06'713.6
2018-Jun-09 02:00N 53°28' E 004°56'713.7
2018-Jun-09 01:31N 53°25' E 004°45'713.3
2018-Jun-09 01:01N 53°19' E 004°39'713.8
2018-Jun-09 00:31N 53°13' E 004°33'713.9
2018-Jun-09 00:00N 53°07' E 004°27'713.8
2018-Jun-08 23:30N 53°01' E 004°22'713.8
2018-Jun-08 23:00N 52°55' E 004°17'713.6
2018-Jun-08 22:30N 52°49' E 004°12'713.8
2018-Jun-08 22:01N 52°43' E 004°05'713.7
2018-Jun-08 21:31N 52°37' E 003°60'713.2
2018-Jun-08 21:01N 52°32' E 003°55'713.3
2018-Jun-08 20:31N 52°25' E 003°53'612.8
2018-Jun-08 20:00N 52°19' E 003°52'612.5
2018-Jun-08 19:30N 52°12' E 003°53'612.0
2018-Jun-08 19:01N 52°07' E 003°55'  
Track history (hours):
 
Tides and Currents Weather Stations Pressure Air Temp Water Temp Dewpoint Dewpoint Depression Visibility Wind Speed Wind Dir Waves Ship Positions

APL Illinois

Last reported at 2018-Jun-18 18:56 UTC. Time now 2018-Jun-19 04:30 UTC.
Position N 37°10' E 003°52'.

Length 304 m; draft 14.2 m.

Type: Ship (hazmat cat A). MMSI: 249851000.

Date/timePositionNaut miles runAvg speedWind from/ knotsBaromVisibWave heightAir tempDewpointWater temp
2018-Jun-18 18:56N 37°10' E 003°52'5019.9
2018-Jun-18 16:24N 37°02' E 002°50'820.3
2018-Jun-18 16:00N 37°00' E 002°40'1020.4
2018-Jun-18 15:31N 36°59' E 002°28'1020.7
2018-Jun-18 15:00N 36°57' E 002°15'1121.3
2018-Jun-18 14:31N 36°55' E 002°02'1121.1
2018-Jun-18 14:01N 36°53' E 001°49'2821.2
2018-Jun-18 12:43N 36°49' E 001°15'421.0
2018-Jun-18 12:30N 36°48' E 001°09'1020.9
2018-Jun-18 12:01N 36°47' E 000°57'1420.6
2018-Jun-18 11:21N 36°45' E 000°40'720.5
2018-Jun-18 11:01N 36°44' E 000°31'1020.4
2018-Jun-18 10:30N 36°42' E 000°19'1020.3
2018-Jun-18 10:00N 36°40' E 000°06'1020.5
2018-Jun-18 09:30N 36°38' W 000°06'1120.7
2018-Jun-18 08:59N 36°37' W 000°19'1120.7
2018-Jun-18 08:29N 36°35' W 000°32'1020.4
2018-Jun-18 08:01N 36°34' W 000°44'1020.8
2018-Jun-18 07:31N 36°32' W 000°57'1221.0
2018-Jun-18 06:56N 36°30' W 001°12'920.8
2018-Jun-18 06:29N 36°28' W 001°23'1021.0
2018-Jun-18 06:00N 36°26' W 001°36'1121.6
2018-Jun-18 05:29N 36°24' W 001°49'3022.0
2018-Jun-18 04:08N 36°20' W 002°26'13421.8
2018-Jun-17 22:00N 36°00' W 005°10'1122.7
2018-Jun-17 21:31N 35°58' W 005°23'1223.6
2018-Jun-17 21:00N 35°55' W 005°37'1122.5
2018-Jun-17 20:30N 35°53' W 005°51'1121.3
2018-Jun-17 20:00N 35°53' W 006°04'10321.0
2018-Jun-17 15:06N 36°18' W 008°09'220.7
2018-Jun-17 14:59N 36°18' W 008°11'1020.6
2018-Jun-17 14:29N 36°21' W 008°24'1220.8
2018-Jun-17 13:54N 36°24' W 008°38'921.1
2018-Jun-17 13:28N 36°27' W 008°49'1020.8
2018-Jun-17 13:00N 36°30' W 009°01'1020.7
2018-Jun-17 12:30N 36°32' W 009°13'1120.4
2018-Jun-17 11:59N 36°38' W 009°24'1021.2
2018-Jun-17 11:30N 36°46' W 009°33'2921.1
2018-Jun-17 10:09N 37°13' W 009°42'321.1
2018-Jun-17 10:00N 37°16' W 009°43'1121.2
2018-Jun-17 09:30N 37°27' W 009°46'1121.2
2018-Jun-17 09:00N 37°37' W 009°49'1021.0
2018-Jun-17 08:30N 37°47' W 009°52'1121.2
2018-Jun-17 08:00N 37°58' W 009°55'1021.1
2018-Jun-17 07:30N 38°08' W 009°57'1121.0
2018-Jun-17 07:00N 38°18' W 009°60'1021.0
2018-Jun-17 06:30N 38°29' W 010°02'1121.0
2018-Jun-17 06:00N 38°39' W 010°05'1020.9
2018-Jun-17 05:30N 38°49' W 010°07'1120.8
2018-Jun-17 05:00N 38°60' W 010°08'1020.7
2018-Jun-17 04:30N 39°10' W 010°08'1121.3
2018-Jun-17 03:58N 39°21' W 010°08'1221.1
2018-Jun-17 03:25N 39°33' W 010°08'3221.3
2018-Jun-17 01:55N 40°05' W 010°09'5821.3
2018-Jun-16 23:12N 41°03' W 010°09'421.5
2018-Jun-16 23:00N 41°07' W 010°09'52320.2
2018-Jun-15 21:10N 49°06' W 005°12'919.4
2018-Jun-15 20:43N 49°10' W 005°01'918.8
2018-Jun-15 20:13N 49°15' W 004°49'4518.8
2018-Jun-15 17:49N 49°39' W 003°50'1619.2
2018-Jun-15 16:59N 49°46' W 003°28'1020.5
2018-Jun-15 16:31N 49°51' W 003°14'1121.3
2018-Jun-15 16:00N 49°57' W 003°00'1122.5
2018-Jun-15 15:31N 50°01' W 002°44'1223.5
2018-Jun-15 15:01N 50°05' W 002°26'1224.2
2018-Jun-15 14:30N 50°08' W 002°09'1324.3
2018-Jun-15 13:58N 50°12' W 001°49'1123.6
2018-Jun-15 13:29N 50°14' W 001°31'1122.8
2018-Jun-15 13:00N 50°17' W 001°15'1121.8
2018-Jun-15 12:30N 50°19' W 000°58'1020.3
2018-Jun-15 12:00N 50°21' W 000°42'1019.7
2018-Jun-15 11:30N 50°23' W 000°28'1019.3
2018-Jun-15 11:00N 50°26' W 000°13'1018.9
2018-Jun-15 10:30N 50°29' E 000°01'918.4
2018-Jun-15 10:00N 50°31' E 000°15'918.4
2018-Jun-15 09:30N 50°35' E 000°28'919.0
2018-Jun-15 09:00N 50°40' E 000°41'1020.3
2018-Jun-15 08:30N 50°46' E 000°54'1121.7
2018-Jun-15 08:01N 50°52' E 001°09'1122.8
2018-Jun-15 07:31N 50°59' E 001°23'1224.1
2018-Jun-15 07:01N 51°08' E 001°35'1122.6
2018-Jun-15 06:30N 51°16' E 001°48'1121.3
2018-Jun-15 06:01N 51°25' E 001°58'918.0
2018-Jun-15 05:31N 51°21' E 002°12'918.5
2018-Jun-15 05:00N 51°22' E 002°26'918.2
2018-Jun-15 04:31N 51°23' E 002°41'713.6
2018-Jun-15 04:00N 51°25' E 002°51'917.9
2018-Jun-15 03:30N 51°24' E 003°05'917.2
2018-Jun-15 03:00N 51°24' E 003°19'816.9
2018-Jun-15 02:30N 51°25' E 003°32'510.5
2018-Jun-15 02:00N 51°26' E 003°41'714.1
2018-Jun-15 01:31N 51°21' E 003°48'612.8
2018-Jun-15 01:00N 51°24' E 003°57'3 6.9
2018-Jun-15 00:30N 51°23' E 004°03'612.1
2018-Jun-15 00:00N 51°24' E 004°12'4 7.8
2018-Jun-14 23:31N 51°21' E 004°16'0 0.4
2018-Jun-14 23:01N 51°21' E 004°16'0 0.0
2018-Jun-14 22:30N 51°21' E 004°16'0 0.0
2018-Jun-14 22:01N 51°21' E 004°16'0 0.0
2018-Jun-14 21:30N 51°21' E 004°16'0 0.0
2018-Jun-14 21:01N 51°21' E 004°16'0 0.0
2018-Jun-14 20:31N 51°21' E 004°16'0 0.0
2018-Jun-14 20:01N 51°21' E 004°16'0 0.0
2018-Jun-14 19:30N 51°21' E 004°16'0 0.0
2018-Jun-14 18:59N 51°21' E 004°16'0 0.0
2018-Jun-14 18:30N 51°21' E 004°16'0 0.0
2018-Jun-14 18:01N 51°21' E 004°16'0 0.0
2018-Jun-14 17:30N 51°21' E 004°16'0 0.0
2018-Jun-14 17:00N 51°21' E 004°16'0 0.0
2018-Jun-14 16:30N 51°21' E 004°16'0 0.0
2018-Jun-14 16:00N 51°21' E 004°16'0 0.0
2018-Jun-14 15:31N 51°21' E 004°16'0 0.0
2018-Jun-14 15:00N 51°21' E 004°16'0 0.0
2018-Jun-14 14:30N 51°21' E 004°16'0 0.0
2018-Jun-14 14:00N 51°21' E 004°16'0 0.0
2018-Jun-14 13:31N 51°21' E 004°16'0 0.1
2018-Jun-14 12:59N 51°21' E 004°16'0 0.1
2018-Jun-14 12:30N 51°21' E 004°16'0 0.0
2018-Jun-14 11:57N 51°21' E 004°16'0 0.0
2018-Jun-14 11:31N 51°21' E 004°16'0 0.0
2018-Jun-14 11:01N 51°21' E 004°16'0 0.0
2018-Jun-14 10:29N 51°21' E 004°16'0 0.0
2018-Jun-14 10:00N 51°21' E 004°16'0 0.0
2018-Jun-14 09:30N 51°21' E 004°16'0 0.0
2018-Jun-14 09:00N 51°21' E 004°16'0 0.0
2018-Jun-14 08:30N 51°21' E 004°16'0 0.0
2018-Jun-14 07:59N 51°21' E 004°16'0 0.0
2018-Jun-14 07:30N 51°21' E 004°16'0 0.0
2018-Jun-14 07:01N 51°21' E 004°16'0 0.0
2018-Jun-14 06:31N 51°21' E 004°16'0 0.0
2018-Jun-14 06:00N 51°21' E 004°16'0 0.0
2018-Jun-14 05:30N 51°21' E 004°16'0 0.0
2018-Jun-14 05:00N 51°21' E 004°16'0 0.0
2018-Jun-14 04:30N 51°21' E 004°16'0 0.0
2018-Jun-14 04:01N 51°21' E 004°16'0 0.0
2018-Jun-14 03:31N 51°21' E 004°16'0 0.0
2018-Jun-14 02:59N 51°21' E 004°16'0 0.0
2018-Jun-14 02:30N 51°21' E 004°16'0 0.0
2018-Jun-14 02:00N 51°21' E 004°16'0 0.0
2018-Jun-14 01:30N 51°21' E 004°16'0 0.0
2018-Jun-14 01:01N 51°21' E 004°16'0 0.0
2018-Jun-14 00:30N 51°21' E 004°16'0 0.0
2018-Jun-14 00:00N 51°21' E 004°16'0 0.0
2018-Jun-13 23:30N 51°21' E 004°16'0 0.1
2018-Jun-13 23:00N 51°21' E 004°16'0 0.0
2018-Jun-13 22:29N 51°21' E 004°16'0 0.0
2018-Jun-13 22:00N 51°21' E 004°16'0 0.0
2018-Jun-13 21:29N 51°21' E 004°16'0 0.0
2018-Jun-13 21:01N 51°21' E 004°16'0 0.0
2018-Jun-13 20:31N 51°21' E 004°16'0 0.0
2018-Jun-13 19:59N 51°21' E 004°16'0 0.0
2018-Jun-13 19:31N 51°21' E 004°16'0 0.0
2018-Jun-13 19:00N 51°21' E 004°16'0 0.0
2018-Jun-13 18:31N 51°21' E 004°16'0 0.0
2018-Jun-13 18:01N 51°21' E 004°16'1 2.1
2018-Jun-13 17:31N 51°21' E 004°14'4 8.7
2018-Jun-13 17:00N 51°22' E 004°07'510.5
2018-Jun-13 16:30N 51°26' E 004°01'611.6
2018-Jun-13 16:00N 51°22' E 003°54'612.5
2018-Jun-13 15:30N 51°22' E 003°44'612.1
2018-Jun-13 15:00N 51°26' E 003°37'611.3
2018-Jun-13 14:31N 51°25' E 003°28'918.7
2018-Jun-13 14:01N 51°24' E 003°13'816.2
2018-Jun-13 13:30N 51°26' E 003°00'816.4
2018-Jun-13 13:00N 51°33' E 003°07'816.7
2018-Jun-13 12:31N 51°41' E 003°12'713.4
2018-Jun-13 12:00N 51°47' E 003°18'3 5.3
2018-Jun-13 11:28N 51°48' E 003°22'0 0.2
2018-Jun-13 10:55N 51°48' E 003°22'0 0.3
2018-Jun-13 10:25N 51°47' E 003°22'0 0.0
2018-Jun-13 09:55N 51°47' E 003°22'0 0.0
2018-Jun-13 09:25N 51°47' E 003°22'0 0.0
2018-Jun-13 08:55N 51°47' E 003°22'0 0.0
2018-Jun-13 08:25N 51°47' E 003°22'0 0.0
2018-Jun-13 07:52N 51°47' E 003°22'0 0.0
2018-Jun-13 07:16N 51°47' E 003°22'0 0.0
2018-Jun-13 06:58N 51°47' E 003°22'0 0.1
2018-Jun-13 06:10N 51°47' E 003°22'0 0.0
2018-Jun-13 05:55N 51°47' E 003°22'0 0.0
2018-Jun-13 05:25N 51°47' E 003°22'0 0.1
2018-Jun-13 03:31N 51°48' E 003°22'0 0.4
2018-Jun-13 03:28N 51°48' E 003°22'0 0.1
2018-Jun-13 02:58N 51°48' E 003°22'0 0.1
2018-Jun-13 02:25N 51°48' E 003°22'0 0.0
2018-Jun-13 01:58N 51°48' E 003°22'0 0.0
2018-Jun-13 01:22N 51°48' E 003°22'0 0.0
2018-Jun-13 00:13N 51°48' E 003°22'0 0.2
2018-Jun-12 23:49N 51°48' E 003°22'0 0.3
2018-Jun-12 23:28N 51°48' E 003°22'0 0.2
2018-Jun-12 22:58N 51°47' E 003°22'0 0.1
2018-Jun-12 22:19N 51°47' E 003°22'1 2.1
2018-Jun-12 22:00N 51°47' E 003°22'713.3
2018-Jun-12 21:28N 51°45' E 003°11'715.0
2018-Jun-12 20:59N 51°48' E 002°60'1116.6
2018-Jun-12 20:20N 51°45' E 002°43'413.1
2018-Jun-12 20:00N 51°41' E 002°42'714.6
2018-Jun-12 19:30N 51°33' E 002°41'714.1
2018-Jun-12 19:00N 51°27' E 002°35'510.1
2018-Jun-12 18:30N 51°33' E 002°36'815.7
2018-Jun-12 17:58N 51°41' E 002°38'918.1
2018-Jun-12 17:28N 51°50' E 002°36'714.4
2018-Jun-12 17:01N 51°56' E 002°39'714.1
2018-Jun-12 16:30N 52°01' E 002°47'713.0
2018-Jun-12 15:58N 52°07' E 002°54'1112.4
2018-Jun-12 15:04N 52°15' E 003°05'112.3
2018-Jun-12 14:57N 52°17' E 003°07'511.9
2018-Jun-12 14:30N 52°21' E 003°12'611.8
2018-Jun-12 13:58N 52°25' E 003°19'711.6
2018-Jun-12 13:25N 52°31' E 003°23'1111.6
2018-Jun-12 12:27N 52°41' E 003°33'1212.7
2018-Jun-12 11:31N 52°50' E 003°46'2513.8
2018-Jun-12 09:44N 53°06' E 004°17'314.1
2018-Jun-12 09:30N 53°08' E 004°21'714.1
2018-Jun-12 09:00N 53°14' E 004°27'814.6
2018-Jun-12 08:27N 53°21' E 004°32'714.3
2018-Jun-12 07:58N 53°28' E 004°37'713.2
2018-Jun-12 07:27N 53°31' E 004°47'613.1
2018-Jun-12 07:00N 53°33' E 004°56'612.7
2018-Jun-12 06:30N 53°35' E 005°06'612.1
2018-Jun-12 06:00N 53°37' E 005°16'611.7
2018-Jun-12 05:29N 53°39' E 005°26'611.8
2018-Jun-12 05:00N 53°41' E 005°34'1612.2
2018-Jun-12 03:39N 53°46' E 006°01'212.6
2018-Jun-12 03:28N 53°47' E 006°05'713.0
2018-Jun-12 02:56N 53°49' E 006°16'613.5
2018-Jun-12 02:28N 53°51' E 006°26'613.7
2018-Jun-12 02:00N 53°53' E 006°36'813.8
2018-Jun-12 01:27N 53°54' E 006°49'3112.6
2018-Jun-11 23:01N 53°58' E 007°41'012.5
2018-Jun-11 23:00N 53°58' E 007°41'611.9
2018-Jun-11 22:27N 53°53' E 007°48'612.4
2018-Jun-11 21:56N 53°51' E 007°59'817.3
2018-Jun-11 21:30N 53°47' E 008°09'816.7
2018-Jun-11 21:00N 53°42' E 008°20'714.8
2018-Jun-11 20:30N 53°37' E 008°30'1 1.9
2018-Jun-11 19:59N 53°36' E 008°31'0 0.0
2018-Jun-11 19:29N 53°36' E 008°31'0 0.0
2018-Jun-11 18:59N 53°36' E 008°31'0 0.0
2018-Jun-11 18:29N 53°36' E 008°31'0 0.0
2018-Jun-11 17:59N 53°36' E 008°31'0 0.0
2018-Jun-11 17:29N 53°36' E 008°31'0 0.0
2018-Jun-11 16:59N 53°36' E 008°31'0 0.0
2018-Jun-11 16:29N 53°36' E 008°31'0 0.0
2018-Jun-11 15:59N 53°36' E 008°31'0 0.0
2018-Jun-11 15:29N 53°36' E 008°31'0 0.0
2018-Jun-11 14:59N 53°36' E 008°31'0 0.0
2018-Jun-11 14:29N 53°36' E 008°31'0 0.0
2018-Jun-11 13:59N 53°36' E 008°31'0 0.0
2018-Jun-11 13:29N 53°36' E 008°31'0 0.0
2018-Jun-11 12:59N 53°36' E 008°31'0 0.0
2018-Jun-11 12:29N 53°36' E 008°31'0 0.0
2018-Jun-11 11:59N 53°36' E 008°31'0 0.0
2018-Jun-11 11:29N 53°36' E 008°31'0 0.0
2018-Jun-11 10:59N 53°36' E 008°31'0 0.0
2018-Jun-11 10:29N 53°36' E 008°31'0 0.0
2018-Jun-11 09:59N 53°36' E 008°31'0 0.0
2018-Jun-11 09:29N 53°36' E 008°31'0 0.0
2018-Jun-11 08:59N 53°36' E 008°31'0 0.0
2018-Jun-11 08:29N 53°36' E 008°31'0 0.0
2018-Jun-11 07:59N 53°36' E 008°31'0 0.0
2018-Jun-11 07:29N 53°36' E 008°31'0 0.0
2018-Jun-11 06:59N 53°36' E 008°31'0 0.0
2018-Jun-11 06:29N 53°36' E 008°31'0 0.0
2018-Jun-11 05:59N 53°36' E 008°31'0 0.0
2018-Jun-11 05:29N 53°36' E 008°31'0 0.0
2018-Jun-11 04:59N 53°36' E 008°31'0 0.0
2018-Jun-11 04:29N 53°36' E 008°31'0 0.0
2018-Jun-11 03:59N 53°36' E 008°31'0 0.0
2018-Jun-11 03:29N 53°36' E 008°31'0 0.0
2018-Jun-11 02:59N 53°36' E 008°31'0 0.1
2018-Jun-11 02:29N 53°36' E 008°31'0 0.0
2018-Jun-11 01:59N 53°36' E 008°31'0 0.0
2018-Jun-11 01:29N 53°36' E 008°31'0 0.0
2018-Jun-11 00:59N 53°36' E 008°31'0 0.0
2018-Jun-11 00:29N 53°36' E 008°31'0 0.0
2018-Jun-10 23:59N 53°36' E 008°31'0 0.0
2018-Jun-10 23:29N 53°36' E 008°31'0 0.0
2018-Jun-10 22:59N 53°36' E 008°31'0 0.0
2018-Jun-10 22:26N 53°36' E 008°31'0 0.0
2018-Jun-10 21:59N 53°36' E 008°31'0 0.0
2018-Jun-10 21:29N 53°36' E 008°31'0 0.0
2018-Jun-10 20:59N 53°36' E 008°31'0 0.0
2018-Jun-10 20:29N 53°36' E 008°31'0 0.0
2018-Jun-10 19:59N 53°36' E 008°31'0 0.0
2018-Jun-10 19:29N 53°36' E 008°31'0 0.0
2018-Jun-10 18:59N 53°36' E 008°31'0 0.0
2018-Jun-10 18:29N 53°36' E 008°31'0 0.0
2018-Jun-10 17:59N 53°36' E 008°31'0 0.0
2018-Jun-10 17:29N 53°36' E 008°31'0 0.0
2018-Jun-10 16:59N 53°36' E 008°31'0 0.0
2018-Jun-10 16:29N 53°36' E 008°31'0 0.0
2018-Jun-10 15:59N 53°36' E 008°31'0 0.0
2018-Jun-10 15:29N 53°36' E 008°31'0 0.0
2018-Jun-10 14:59N 53°36' E 008°31'0 0.0
2018-Jun-10 13:59N 53°36' E 008°31'0 0.0
2018-Jun-10 13:29N 53°36' E 008°31'0 0.0
2018-Jun-10 12:59N 53°36' E 008°31'0 0.0
2018-Jun-10 12:29N 53°36' E 008°31'0 0.0
2018-Jun-10 11:59N 53°36' E 008°31'0 0.0
2018-Jun-10 11:29N 53°36' E 008°31'0 0.0
2018-Jun-10 10:59N 53°36' E 008°31'0 0.0
2018-Jun-10 10:30N 53°36' E 008°31'3 5.0
2018-Jun-10 10:00N 53°38' E 008°27'714.9
2018-Jun-10 09:30N 53°43' E 008°18'714.0
2018-Jun-10 09:00N 53°47' E 008°09'816.9
2018-Jun-10 08:30N 53°51' E 007°57'713.8
2018-Jun-10 08:00N 53°53' E 007°45'1 2.7
2018-Jun-10 07:30N 53°54' E 007°47'0 0.1
2018-Jun-10 06:53N 53°54' E 007°47'0 0.0
2018-Jun-10 06:08N 53°54' E 007°47'0 0.0
2018-Jun-10 05:59N 53°54' E 007°47'0 0.0
2018-Jun-10 04:56N 53°54' E 007°47'0 0.0
2018-Jun-10 04:11N 53°54' E 007°47'0 0.0
2018-Jun-10 03:47N 53°54' E 007°47'0 0.0
2018-Jun-10 03:29N 53°54' E 007°47'0 0.0
2018-Jun-10 02:59N 53°54' E 007°47'0 0.1
2018-Jun-10 02:29N 53°54' E 007°47'0 0.1
2018-Jun-10 01:59N 53°54' E 007°47'0 0.0
2018-Jun-10 01:29N 53°54' E 007°47'0 0.1
2018-Jun-10 00:59N 53°54' E 007°47'0 0.1
2018-Jun-10 00:29N 53°54' E 007°46'0 0.1
2018-Jun-09 23:59N 53°54' E 007°46'0 0.0
2018-Jun-09 23:29N 53°54' E 007°46'0 0.0
2018-Jun-09 22:59N 53°54' E 007°46'0 0.0
2018-Jun-09 22:29N 53°54' E 007°46'0 0.0
2018-Jun-09 21:59N 53°54' E 007°46'0 0.1
2018-Jun-09 21:29N 53°54' E 007°46'0 0.1
2018-Jun-09 20:59N 53°54' E 007°46'0 0.1
2018-Jun-09 20:26N 53°54' E 007°47'0 0.1
2018-Jun-09 19:56N 53°54' E 007°47'0 0.0
2018-Jun-09 19:29N 53°54' E 007°47'0 0.1
2018-Jun-09 18:59N 53°54' E 007°47'0 0.1
2018-Jun-09 18:29N 53°54' E 007°47'0 0.0
2018-Jun-09 17:59N 53°54' E 007°47'0 0.0
2018-Jun-09 17:29N 53°54' E 007°47'0 0.0
2018-Jun-09 16:59N 53°54' E 007°47'0 0.0
2018-Jun-09 16:26N 53°54' E 007°47'0 0.0
2018-Jun-09 15:59N 53°54' E 007°47'0 0.0
2018-Jun-09 15:29N 53°54' E 007°47'0 0.1
2018-Jun-09 14:29N 53°54' E 007°47'0 0.1
2018-Jun-09 13:59N 53°54' E 007°47'0 0.0
2018-Jun-09 13:29N 53°54' E 007°47'0 0.1
2018-Jun-09 12:59N 53°54' E 007°47'0 0.1
2018-Jun-09 12:29N 53°54' E 007°46'0 0.1
2018-Jun-09 11:59N 53°54' E 007°46'0 0.1
2018-Jun-09 11:29N 53°54' E 007°46'0 0.0
2018-Jun-09 10:59N 53°54' E 007°46'0 0.1
2018-Jun-09 10:26N 53°54' E 007°46'0 0.4
2018-Jun-09 10:00N 53°54' E 007°46'4 7.9
2018-Jun-09 09:30N 53°54' E 007°40'816.9
2018-Jun-09 09:00N 53°53' E 007°25'813.4
2018-Jun-09 08:24N 53°52' E 007°12'512.3
2018-Jun-09 07:59N 53°51' E 007°03'612.6
2018-Jun-09 07:31N 53°49' E 006°54'612.9
2018-Jun-09 07:01N 53°48' E 006°43'713.0
2018-Jun-09 06:30N 53°47' E 006°32'713.0
2018-Jun-09 06:00N 53°45' E 006°21'613.1
2018-Jun-09 05:30N 53°43' E 006°11'713.3
2018-Jun-09 05:01N 53°41' E 005°60'713.3
2018-Jun-09 04:30N 53°39' E 005°49'713.4
2018-Jun-09 04:00N 53°37' E 005°39'713.6
2018-Jun-09 03:30N 53°35' E 005°28'713.6
2018-Jun-09 03:00N 53°33' E 005°17'713.5
2018-Jun-09 02:30N 53°31' E 005°06'713.6
2018-Jun-09 02:00N 53°28' E 004°56'713.7
2018-Jun-09 01:31N 53°25' E 004°45'713.3
2018-Jun-09 01:01N 53°19' E 004°39'713.8
2018-Jun-09 00:31N 53°13' E 004°33'713.9
2018-Jun-09 00:00N 53°07' E 004°27'713.8
2018-Jun-08 23:30N 53°01' E 004°22'713.8
2018-Jun-08 23:00N 52°55' E 004°17'713.6
2018-Jun-08 22:30N 52°49' E 004°12'713.8
2018-Jun-08 22:01N 52°43' E 004°05'713.7
2018-Jun-08 21:31N 52°37' E 003°60'713.2
2018-Jun-08 21:01N 52°32' E 003°55'713.3
2018-Jun-08 20:31N 52°25' E 003°53'612.8
2018-Jun-08 20:00N 52°19' E 003°52'612.5
2018-Jun-08 19:30N 52°12' E 003°53'612.0
2018-Jun-08 19:01N 52°07' E 003°55'  

Dump ship's entire track history